sensor_id;sensor_type;location;lat;lon;timestamp;temperature;humidity
16160;DHT22;8185;57.818;15.224;2023-05-07T00:01:58;-1.00;99.90
16160;DHT22;8185;57.818;15.224;2023-05-07T00:04:25;-1.00;99.90
16160;DHT22;8185;57.818;15.224;2023-05-07T00:06:53;-1.10;99.90
16160;DHT22;8185;57.818;15.224;2023-05-07T00:09:21;-1.20;99.90
16160;DHT22;8185;57.818;15.224;2023-05-07T00:11:49;-1.20;99.90
16160;DHT22;8185;57.818;15.224;2023-05-07T00:14:16;-1.20;99.90
16160;DHT22;8185;57.818;15.224;2023-05-07T00:16:44;-1.30;99.90
16160;DHT22;8185;57.818;15.224;2023-05-07T00:19:11;-1.40;99.90
16160;DHT22;8185;57.818;15.224;2023-05-07T00:21:38;-1.40;99.90
16160;DHT22;8185;57.818;15.224;2023-05-07T00:24:05;-1.40;99.90
16160;DHT22;8185;57.818;15.224;2023-05-07T00:26:32;-1.50;99.90
16160;DHT22;8185;57.818;15.224;2023-05-07T00:29:01;-1.50;99.90
16160;DHT22;8185;57.818;15.224;2023-05-07T00:31:28;-1.30;99.90
16160;DHT22;8185;57.818;15.224;2023-05-07T00:33:55;-1.20;99.90
16160;DHT22;8185;57.818;15.224;2023-05-07T00:36:22;-1.30;99.90
16160;DHT22;8185;57.818;15.224;2023-05-07T00:38:49;-1.40;99.90
16160;DHT22;8185;57.818;15.224;2023-05-07T00:41:17;-1.50;99.90
16160;DHT22;8185;57.818;15.224;2023-05-07T00:43:44;-1.50;99.90
16160;DHT22;8185;57.818;15.224;2023-05-07T00:46:13;-1.50;99.90
16160;DHT22;8185;57.818;15.224;2023-05-07T00:48:41;-1.60;99.90
16160;DHT22;8185;57.818;15.224;2023-05-07T00:51:09;-1.50;99.90
16160;DHT22;8185;57.818;15.224;2023-05-07T00:53:37;-1.50;99.90
16160;DHT22;8185;57.818;15.224;2023-05-07T00:56:06;-1.50;99.90
16160;DHT22;8185;57.818;15.224;2023-05-07T00:58:33;-1.50;99.90
16160;DHT22;8185;57.818;15.224;2023-05-07T01:01:00;-1.50;99.90
16160;DHT22;8185;57.818;15.224;2023-05-07T01:03:29;-1.40;99.90
16160;DHT22;8185;57.818;15.224;2023-05-07T01:05:57;-1.30;99.90
16160;DHT22;8185;57.818;15.224;2023-05-07T01:08:26;-1.40;99.90
16160;DHT22;8185;57.818;15.224;2023-05-07T01:10:55;-1.50;99.90
16160;DHT22;8185;57.818;15.224;2023-05-07T01:13:23;-1.50;99.90
16160;DHT22;8185;57.818;15.224;2023-05-07T01:15:51;-1.40;99.90
16160;DHT22;8185;57.818;15.224;2023-05-07T01:18:18;-1.40;99.90
16160;DHT22;8185;57.818;15.224;2023-05-07T01:20:47;-1.50;99.90
16160;DHT22;8185;57.818;15.224;2023-05-07T01:23:15;-1.50;99.90
16160;DHT22;8185;57.818;15.224;2023-05-07T01:25:51;-1.50;99.90
16160;DHT22;8185;57.818;15.224;2023-05-07T01:28:18;-1.50;99.90
16160;DHT22;8185;57.818;15.224;2023-05-07T01:30:48;-1.50;99.90
16160;DHT22;8185;57.818;15.224;2023-05-07T01:33:19;-1.50;99.90
16160;DHT22;8185;57.818;15.224;2023-05-07T01:35:50;-1.60;99.90
16160;DHT22;8185;57.818;15.224;2023-05-07T01:38:21;-1.60;99.90
16160;DHT22;8185;57.818;15.224;2023-05-07T01:40:48;-1.60;99.90
16160;DHT22;8185;57.818;15.224;2023-05-07T01:43:16;-1.70;99.90
16160;DHT22;8185;57.818;15.224;2023-05-07T01:45:45;-1.70;99.90
16160;DHT22;8185;57.818;15.224;2023-05-07T01:48:14;-1.70;99.90
16160;DHT22;8185;57.818;15.224;2023-05-07T01:50:43;-1.80;99.90
16160;DHT22;8185;57.818;15.224;2023-05-07T01:53:11;-1.90;99.90
16160;DHT22;8185;57.818;15.224;2023-05-07T01:55:39;-2.00;99.90
16160;DHT22;8185;57.818;15.224;2023-05-07T01:58:06;-2.00;99.90
16160;DHT22;8185;57.818;15.224;2023-05-07T02:00:34;-2.10;99.90
16160;DHT22;8185;57.818;15.224;2023-05-07T02:03:01;-2.10;99.90
16160;DHT22;8185;57.818;15.224;2023-05-07T02:05:28;-2.10;99.90
16160;DHT22;8185;57.818;15.224;2023-05-07T02:07:56;-2.20;99.90
16160;DHT22;8185;57.818;15.224;2023-05-07T02:10:23;-2.20;99.90
16160;DHT22;8185;57.818;15.224;2023-05-07T02:12:51;-2.30;99.90
16160;DHT22;8185;57.818;15.224;2023-05-07T02:15:18;-2.30;99.90
16160;DHT22;8185;57.818;15.224;2023-05-07T02:17:59;-2.30;99.90
16160;DHT22;8185;57.818;15.224;2023-05-07T02:20:26;-2.30;99.90
16160;DHT22;8185;57.818;15.224;2023-05-07T02:22:54;-2.30;99.90
16160;DHT22;8185;57.818;15.224;2023-05-07T02:25:21;-2.50;99.90
16160;DHT22;8185;57.818;15.224;2023-05-07T02:27:48;-2.70;99.90
16160;DHT22;8185;57.818;15.224;2023-05-07T02:30:17;-2.80;99.90
16160;DHT22;8185;57.818;15.224;2023-05-07T02:32:46;-2.80;99.90
16160;DHT22;8185;57.818;15.224;2023-05-07T02:35:14;-2.90;99.90
16160;DHT22;8185;57.818;15.224;2023-05-07T02:37:41;-2.90;99.90
16160;DHT22;8185;57.818;15.224;2023-05-07T02:40:09;-2.70;99.90
16160;DHT22;8185;57.818;15.224;2023-05-07T02:42:36;-2.80;99.90
16160;DHT22;8185;57.818;15.224;2023-05-07T02:45:04;-2.90;99.90
16160;DHT22;8185;57.818;15.224;2023-05-07T02:47:33;-2.90;99.90
16160;DHT22;8185;57.818;15.224;2023-05-07T02:50:00;-2.90;99.90
16160;DHT22;8185;57.818;15.224;2023-05-07T02:52:27;-2.90;99.90
16160;DHT22;8185;57.818;15.224;2023-05-07T02:54:54;-2.90;99.90
16160;DHT22;8185;57.818;15.224;2023-05-07T02:57:21;-3.00;99.90
16160;DHT22;8185;57.818;15.224;2023-05-07T02:59:49;-3.00;99.90
16160;DHT22;8185;57.818;15.224;2023-05-07T03:02:16;-3.00;99.90
16160;DHT22;8185;57.818;15.224;2023-05-07T03:04:45;-3.00;99.90
16160;DHT22;8185;57.818;15.224;2023-05-07T03:07:12;-3.10;99.90
16160;DHT22;8185;57.818;15.224;2023-05-07T03:09:40;-3.10;99.90
16160;DHT22;8185;57.818;15.224;2023-05-07T03:12:07;-3.10;99.90
16160;DHT22;8185;57.818;15.224;2023-05-07T03:14:34;-3.00;99.90
16160;DHT22;8185;57.818;15.224;2023-05-07T03:17:01;-3.00;99.90
16160;DHT22;8185;57.818;15.224;2023-05-07T03:19:28;-3.00;99.90
16160;DHT22;8185;57.818;15.224;2023-05-07T03:21:57;-3.00;99.90
16160;DHT22;8185;57.818;15.224;2023-05-07T03:24:24;-3.00;99.90
16160;DHT22;8185;57.818;15.224;2023-05-07T03:26:52;-3.00;99.90
16160;DHT22;8185;57.818;15.224;2023-05-07T03:29:19;-3.00;99.90
16160;DHT22;8185;57.818;15.224;2023-05-07T03:31:46;-3.10;99.90
16160;DHT22;8185;57.818;15.224;2023-05-07T03:34:13;-3.10;99.90
16160;DHT22;8185;57.818;15.224;2023-05-07T03:36:42;-3.00;99.90
16160;DHT22;8185;57.818;15.224;2023-05-07T03:39:11;-3.00;99.90
16160;DHT22;8185;57.818;15.224;2023-05-07T03:41:38;-3.00;99.90
16160;DHT22;8185;57.818;15.224;2023-05-07T03:44:05;-3.00;99.90
16160;DHT22;8185;57.818;15.224;2023-05-07T03:46:33;-2.90;99.90
16160;DHT22;8185;57.818;15.224;2023-05-07T03:49:01;-2.80;99.90
16160;DHT22;8185;57.818;15.224;2023-05-07T03:51:28;-2.80;99.90
16160;DHT22;8185;57.818;15.224;2023-05-07T03:53:55;-2.80;99.90
16160;DHT22;8185;57.818;15.224;2023-05-07T03:56:24;-2.70;99.90
16160;DHT22;8185;57.818;15.224;2023-05-07T03:58:53;-2.60;99.90
16160;DHT22;8185;57.818;15.224;2023-05-07T04:01:20;-2.60;99.90
16160;DHT22;8185;57.818;15.224;2023-05-07T04:03:47;-2.60;99.90
16160;DHT22;8185;57.818;15.224;2023-05-07T04:06:16;-2.50;99.90
16160;DHT22;8185;57.818;15.224;2023-05-07T04:08:43;-2.40;99.90
16160;DHT22;8185;57.818;15.224;2023-05-07T04:11:10;-2.20;99.90
16160;DHT22;8185;57.818;15.224;2023-05-07T04:13:38;-2.10;99.90
16160;DHT22;8185;57.818;15.224;2023-05-07T04:16:06;-2.00;99.90
16160;DHT22;8185;57.818;15.224;2023-05-07T04:18:33;-1.90;99.90
16160;DHT22;8185;57.818;15.224;2023-05-07T04:21:00;-1.80;99.90
16160;DHT22;8185;57.818;15.224;2023-05-07T04:23:28;-1.70;99.90
16160;DHT22;8185;57.818;15.224;2023-05-07T04:25:55;-1.60;99.90
16160;DHT22;8185;57.818;15.224;2023-05-07T04:28:23;-1.50;99.90
16160;DHT22;8185;57.818;15.224;2023-05-07T04:30:51;-1.40;99.90
16160;DHT22;8185;57.818;15.224;2023-05-07T04:33:18;-1.40;99.90
16160;DHT22;8185;57.818;15.224;2023-05-07T04:35:45;-1.20;99.90
16160;DHT22;8185;57.818;15.224;2023-05-07T04:38:13;-1.10;99.90
16160;DHT22;8185;57.818;15.224;2023-05-07T04:40:40;-1.00;99.90
16160;DHT22;8185;57.818;15.224;2023-05-07T04:43:08;-0.90;99.90
16160;DHT22;8185;57.818;15.224;2023-05-07T04:45:35;-0.70;99.90
16160;DHT22;8185;57.818;15.224;2023-05-07T04:48:05;-0.60;99.90
16160;DHT22;8185;57.818;15.224;2023-05-07T04:50:32;-0.40;99.90
16160;DHT22;8185;57.818;15.224;2023-05-07T04:52:59;-0.20;99.90
16160;DHT22;8185;57.818;15.224;2023-05-07T04:55:26;-0.10;99.90
16160;DHT22;8185;57.818;15.224;2023-05-07T04:57:54;0.10;99.90
16160;DHT22;8185;57.818;15.224;2023-05-07T05:00:21;0.20;99.90
16160;DHT22;8185;57.818;15.224;2023-05-07T05:02:48;0.40;99.90
16160;DHT22;8185;57.818;15.224;2023-05-07T05:05:17;0.50;99.90
16160;DHT22;8185;57.818;15.224;2023-05-07T05:07:44;0.60;99.90
16160;DHT22;8185;57.818;15.224;2023-05-07T05:10:12;0.80;99.90
16160;DHT22;8185;57.818;15.224;2023-05-07T05:12:39;1.00;99.90
16160;DHT22;8185;57.818;15.224;2023-05-07T05:15:08;1.10;99.90
16160;DHT22;8185;57.818;15.224;2023-05-07T05:17:36;1.30;99.90
16160;DHT22;8185;57.818;15.224;2023-05-07T05:20:04;1.50;99.90
16160;DHT22;8185;57.818;15.224;2023-05-07T05:22:33;1.70;99.90
16160;DHT22;8185;57.818;15.224;2023-05-07T05:25:00;1.90;99.90
16160;DHT22;8185;57.818;15.224;2023-05-07T05:27:27;2.10;99.90
16160;DHT22;8185;57.818;15.224;2023-05-07T05:29:55;2.30;99.90
16160;DHT22;8185;57.818;15.224;2023-05-07T05:32:22;2.40;99.90
16160;DHT22;8185;57.818;15.224;2023-05-07T05:34:49;2.50;99.90
16160;DHT22;8185;57.818;15.224;2023-05-07T05:37:17;2.70;99.90
16160;DHT22;8185;57.818;15.224;2023-05-07T05:39:45;2.80;99.90
16160;DHT22;8185;57.818;15.224;2023-05-07T05:42:13;3.00;99.90
16160;DHT22;8185;57.818;15.224;2023-05-07T05:44:40;3.20;99.90
16160;DHT22;8185;57.818;15.224;2023-05-07T05:47:07;3.30;99.90
16160;DHT22;8185;57.818;15.224;2023-05-07T05:49:34;3.50;99.90
16160;DHT22;8185;57.818;15.224;2023-05-07T05:52:02;3.70;99.90
16160;DHT22;8185;57.818;15.224;2023-05-07T05:54:29;3.80;99.90
16160;DHT22;8185;57.818;15.224;2023-05-07T05:56:57;4.00;99.90
16160;DHT22;8185;57.818;15.224;2023-05-07T05:59:25;4.20;99.90
16160;DHT22;8185;57.818;15.224;2023-05-07T06:01:52;4.40;99.90
16160;DHT22;8185;57.818;15.224;2023-05-07T06:04:19;4.60;99.90
16160;DHT22;8185;57.818;15.224;2023-05-07T06:06:46;4.70;99.90
16160;DHT22;8185;57.818;15.224;2023-05-07T06:09:13;4.80;99.90
16160;DHT22;8185;57.818;15.224;2023-05-07T06:11:40;4.90;99.90
16160;DHT22;8185;57.818;15.224;2023-05-07T06:14:09;4.90;99.90
16160;DHT22;8185;57.818;15.224;2023-05-07T06:16:36;5.00;99.90
16160;DHT22;8185;57.818;15.224;2023-05-07T06:19:04;5.30;99.90
16160;DHT22;8185;57.818;15.224;2023-05-07T06:21:31;5.50;99.90
16160;DHT22;8185;57.818;15.224;2023-05-07T06:23:58;5.80;99.90
16160;DHT22;8185;57.818;15.224;2023-05-07T06:26:25;5.90;99.90
16160;DHT22;8185;57.818;15.224;2023-05-07T06:28:53;6.10;99.90
16160;DHT22;8185;57.818;15.224;2023-05-07T06:31:21;6.20;99.90
16160;DHT22;8185;57.818;15.224;2023-05-07T06:33:49;6.40;99.90
16160;DHT22;8185;57.818;15.224;2023-05-07T06:36:16;6.50;99.90
16160;DHT22;8185;57.818;15.224;2023-05-07T06:38:44;6.60;99.90
16160;DHT22;8185;57.818;15.224;2023-05-07T06:41:11;7.00;99.90
16160;DHT22;8185;57.818;15.224;2023-05-07T06:43:38;6.90;99.90
16160;DHT22;8185;57.818;15.224;2023-05-07T06:46:05;7.00;99.90
16160;DHT22;8185;57.818;15.224;2023-05-07T06:48:34;7.10;99.90
16160;DHT22;8185;57.818;15.224;2023-05-07T06:51:01;7.20;99.90
16160;DHT22;8185;57.818;15.224;2023-05-07T06:53:28;7.40;99.90
16160;DHT22;8185;57.818;15.224;2023-05-07T06:55:56;7.50;99.90
16160;DHT22;8185;57.818;15.224;2023-05-07T06:58:23;7.60;99.90
16160;DHT22;8185;57.818;15.224;2023-05-07T07:00:50;7.80;99.90
16160;DHT22;8185;57.818;15.224;2023-05-07T07:03:18;7.90;99.90
16160;DHT22;8185;57.818;15.224;2023-05-07T07:05:46;8.20;99.90
16160;DHT22;8185;57.818;15.224;2023-05-07T07:08:13;8.40;99.90
16160;DHT22;8185;57.818;15.224;2023-05-07T07:10:42;8.50;99.90
16160;DHT22;8185;57.818;15.224;2023-05-07T07:13:10;8.60;99.90
16160;DHT22;8185;57.818;15.224;2023-05-07T07:15:37;8.70;99.90
16160;DHT22;8185;57.818;15.224;2023-05-07T07:18:04;8.60;99.90
16160;DHT22;8185;57.818;15.224;2023-05-07T07:20:31;8.70;99.90
16160;DHT22;8185;57.818;15.224;2023-05-07T07:23:00;8.80;99.90
16160;DHT22;8185;57.818;15.224;2023-05-07T07:25:27;9.00;99.90
16160;DHT22;8185;57.818;15.224;2023-05-07T07:27:55;9.20;99.90
16160;DHT22;8185;57.818;15.224;2023-05-07T07:30:22;9.30;99.90
16160;DHT22;8185;57.818;15.224;2023-05-07T07:32:49;9.60;99.90
16160;DHT22;8185;57.818;15.224;2023-05-07T07:35:17;9.70;99.90
16160;DHT22;8185;57.818;15.224;2023-05-07T07:37:44;9.60;99.50
16160;DHT22;8185;57.818;15.224;2023-05-07T07:40:14;9.80;99.90
16160;DHT22;8185;57.818;15.224;2023-05-07T07:42:41;9.90;99.90
16160;DHT22;8185;57.818;15.224;2023-05-07T07:45:09;9.90;98.60
16160;DHT22;8185;57.818;15.224;2023-05-07T07:47:36;9.90;98.20
16160;DHT22;8185;57.818;15.224;2023-05-07T07:50:04;9.90;98.60
16160;DHT22;8185;57.818;15.224;2023-05-07T07:54:58;10.00;97.70
16160;DHT22;8185;57.818;15.224;2023-05-07T07:57:27;10.10;97.20
16160;DHT22;8185;57.818;15.224;2023-05-07T07:59:54;10.00;95.80
16160;DHT22;8185;57.818;15.224;2023-05-07T08:02:22;10.60;99.90
16160;DHT22;8185;57.818;15.224;2023-05-07T08:04:49;10.70;99.00
16160;DHT22;8185;57.818;15.224;2023-05-07T08:07:16;10.80;97.20
16160;DHT22;8185;57.818;15.224;2023-05-07T08:09:46;10.50;93.70
16160;DHT22;8185;57.818;15.224;2023-05-07T08:12:14;10.60;95.80
16160;DHT22;8185;57.818;15.224;2023-05-07T08:14:43;11.00;98.50
16160;DHT22;8185;57.818;15.224;2023-05-07T08:17:10;10.80;93.50
16160;DHT22;8185;57.818;15.224;2023-05-07T08:19:37;10.40;94.30
16160;DHT22;8185;57.818;15.224;2023-05-07T08:22:06;10.60;93.50
16160;DHT22;8185;57.818;15.224;2023-05-07T08:24:33;10.70;93.60
16160;DHT22;8185;57.818;15.224;2023-05-07T08:27:00;10.90;93.50
16160;DHT22;8185;57.818;15.224;2023-05-07T08:29:27;11.00;93.30
16160;DHT22;8185;57.818;15.224;2023-05-07T08:31:57;11.20;94.60
16160;DHT22;8185;57.818;15.224;2023-05-07T08:34:24;11.10;90.90
16160;DHT22;8185;57.818;15.224;2023-05-07T08:36:51;11.10;92.10
16160;DHT22;8185;57.818;15.224;2023-05-07T08:39:18;11.30;93.20
16160;DHT22;8185;57.818;15.224;2023-05-07T08:41:46;11.50;93.90
16160;DHT22;8185;57.818;15.224;2023-05-07T08:44:16;11.50;92.80
16160;DHT22;8185;57.818;15.224;2023-05-07T08:46:45;11.70;91.50
16160;DHT22;8185;57.818;15.224;2023-05-07T08:49:15;11.80;91.60
16160;DHT22;8185;57.818;15.224;2023-05-07T08:51:42;11.70;90.70
16160;DHT22;8185;57.818;15.224;2023-05-07T08:54:11;11.90;89.80
16160;DHT22;8185;57.818;15.224;2023-05-07T08:56:39;11.20;88.00
16160;DHT22;8185;57.818;15.224;2023-05-07T08:59:06;11.60;90.80
16160;DHT22;8185;57.818;15.224;2023-05-07T09:01:33;11.90;92.20
16160;DHT22;8185;57.818;15.224;2023-05-07T09:04:01;12.40;94.30
16160;DHT22;8185;57.818;15.224;2023-05-07T09:06:30;12.60;91.20
16160;DHT22;8185;57.818;15.224;2023-05-07T09:08:57;12.80;90.40
16160;DHT22;8185;57.818;15.224;2023-05-07T09:11:26;12.30;87.70
16160;DHT22;8185;57.818;15.224;2023-05-07T09:13:54;12.50;90.20
16160;DHT22;8185;57.818;15.224;2023-05-07T09:16:24;12.70;87.00
16160;DHT22;8185;57.818;15.224;2023-05-07T09:18:53;13.00;90.00
16160;DHT22;8185;57.818;15.224;2023-05-07T09:21:21;13.20;90.60
16160;DHT22;8185;57.818;15.224;2023-05-07T09:23:53;13.30;89.80
16160;DHT22;8185;57.818;15.224;2023-05-07T09:26:21;12.90;83.70
16160;DHT22;8185;57.818;15.224;2023-05-07T09:28:49;13.10;85.80
16160;DHT22;8185;57.818;15.224;2023-05-07T09:31:16;13.20;85.40
16160;DHT22;8185;57.818;15.224;2023-05-07T09:33:43;12.60;86.70
16160;DHT22;8185;57.818;15.224;2023-05-07T09:36:10;12.20;84.70
16160;DHT22;8185;57.818;15.224;2023-05-07T09:38:38;12.80;90.70
16160;DHT22;8185;57.818;15.224;2023-05-07T09:41:08;12.70;85.70
16160;DHT22;8185;57.818;15.224;2023-05-07T09:43:37;13.00;87.90
16160;DHT22;8185;57.818;15.224;2023-05-07T09:46:07;12.60;85.80
16160;DHT22;8185;57.818;15.224;2023-05-07T09:48:40;12.60;88.00
16160;DHT22;8185;57.818;15.224;2023-05-07T09:51:15;12.50;88.00
16160;DHT22;8185;57.818;15.224;2023-05-07T09:53:43;13.20;90.30
16160;DHT22;8185;57.818;15.224;2023-05-07T09:56:15;13.90;90.60
16160;DHT22;8185;57.818;15.224;2023-05-07T09:58:43;14.40;90.00
16160;DHT22;8185;57.818;15.224;2023-05-07T10:01:12;14.50;88.40
16160;DHT22;8185;57.818;15.224;2023-05-07T10:03:41;14.70;88.30
16160;DHT22;8185;57.818;15.224;2023-05-07T10:06:09;14.60;83.90
16160;DHT22;8185;57.818;15.224;2023-05-07T10:08:37;14.00;84.10
16160;DHT22;8185;57.818;15.224;2023-05-07T10:11:04;14.40;80.80
16160;DHT22;8185;57.818;15.224;2023-05-07T10:13:34;14.60;81.70
16160;DHT22;8185;57.818;15.224;2023-05-07T10:16:03;15.30;87.50
16160;DHT22;8185;57.818;15.224;2023-05-07T10:18:31;15.20;80.50
16160;DHT22;8185;57.818;15.224;2023-05-07T10:21:03;15.50;79.80
16160;DHT22;8185;57.818;15.224;2023-05-07T10:23:32;15.50;82.20
16160;DHT22;8185;57.818;15.224;2023-05-07T10:26:02;15.90;81.00
16160;DHT22;8185;57.818;15.224;2023-05-07T10:28:36;16.40;83.20
16160;DHT22;8185;57.818;15.224;2023-05-07T10:31:23;15.30;74.70
16160;DHT22;8185;57.818;15.224;2023-05-07T10:33:54;16.20;73.50
16160;DHT22;8185;57.818;15.224;2023-05-07T10:36:22;16.60;71.10
16160;DHT22;8185;57.818;15.224;2023-05-07T10:38:50;16.90;68.90
16160;DHT22;8185;57.818;15.224;2023-05-07T10:41:18;17.60;73.50
16160;DHT22;8185;57.818;15.224;2023-05-07T10:43:48;18.00;70.50
16160;DHT22;8185;57.818;15.224;2023-05-07T10:46:17;17.90;69.80
16160;DHT22;8185;57.818;15.224;2023-05-07T10:49:11;18.00;69.90
16160;DHT22;8185;57.818;15.224;2023-05-07T10:51:38;18.60;73.30
16160;DHT22;8185;57.818;15.224;2023-05-07T10:54:23;19.00;68.00
16160;DHT22;8185;57.818;15.224;2023-05-07T10:56:51;19.10;67.00
16160;DHT22;8185;57.818;15.224;2023-05-07T10:59:35;18.80;61.90
16160;DHT22;8185;57.818;15.224;2023-05-07T11:02:07;20.10;60.50
16160;DHT22;8185;57.818;15.224;2023-05-07T11:04:37;19.00;57.90
16160;DHT22;8185;57.818;15.224;2023-05-07T11:07:25;19.70;58.60
16160;DHT22;8185;57.818;15.224;2023-05-07T11:09:57;20.60;59.10
16160;DHT22;8185;57.818;15.224;2023-05-07T11:12:54;20.00;55.60
16160;DHT22;8185;57.818;15.224;2023-05-07T11:15:42;20.00;56.10
16160;DHT22;8185;57.818;15.224;2023-05-07T11:18:14;20.60;55.80
16160;DHT22;8185;57.818;15.224;2023-05-07T11:20:55;20.20;59.60
16160;DHT22;8185;57.818;15.224;2023-05-07T11:23:56;20.00;57.60
16160;DHT22;8185;57.818;15.224;2023-05-07T11:26:29;20.90;55.30
16160;DHT22;8185;57.818;15.224;2023-05-07T11:28:57;20.50;55.10
16160;DHT22;8185;57.818;15.224;2023-05-07T11:31:28;19.80;55.50
16160;DHT22;8185;57.818;15.224;2023-05-07T11:33:55;19.60;53.20
16160;DHT22;8185;57.818;15.224;2023-05-07T11:36:24;21.20;52.60
16160;DHT22;8185;57.818;15.224;2023-05-07T11:38:51;21.00;56.90
16160;DHT22;8185;57.818;15.224;2023-05-07T11:41:18;20.80;54.20
16160;DHT22;8185;57.818;15.224;2023-05-07T11:43:55;20.70;54.10
16160;DHT22;8185;57.818;15.224;2023-05-07T11:46:22;21.90;53.20
16160;DHT22;8185;57.818;15.224;2023-05-07T11:48:51;20.30;51.00
16160;DHT22;8185;57.818;15.224;2023-05-07T11:51:19;21.50;51.90
16160;DHT22;8185;57.818;15.224;2023-05-07T11:53:47;21.20;52.80
16160;DHT22;8185;57.818;15.224;2023-05-07T11:56:16;20.20;52.10
16160;DHT22;8185;57.818;15.224;2023-05-07T11:58:45;20.20;50.80
16160;DHT22;8185;57.818;15.224;2023-05-07T12:01:13;19.80;53.60
16160;DHT22;8185;57.818;15.224;2023-05-07T12:03:41;19.90;52.50
16160;DHT22;8185;57.818;15.224;2023-05-07T12:06:12;20.80;52.20
16160;DHT22;8185;57.818;15.224;2023-05-07T12:08:41;21.80;51.90
16160;DHT22;8185;57.818;15.224;2023-05-07T12:11:09;21.60;50.00
16160;DHT22;8185;57.818;15.224;2023-05-07T12:13:37;19.70;55.00
16160;DHT22;8185;57.818;15.224;2023-05-07T12:16:06;20.20;55.60
16160;DHT22;8185;57.818;15.224;2023-05-07T12:18:37;19.30;53.70
16160;DHT22;8185;57.818;15.224;2023-05-07T12:21:05;19.00;54.50
16160;DHT22;8185;57.818;15.224;2023-05-07T12:23:36;20.50;51.30
16160;DHT22;8185;57.818;15.224;2023-05-07T12:26:03;20.70;51.30
16160;DHT22;8185;57.818;15.224;2023-05-07T12:28:35;20.70;53.10
16160;DHT22;8185;57.818;15.224;2023-05-07T12:31:04;20.50;52.70
16160;DHT22;8185;57.818;15.224;2023-05-07T12:33:32;20.50;52.60
16160;DHT22;8185;57.818;15.224;2023-05-07T12:36:03;19.70;51.20
16160;DHT22;8185;57.818;15.224;2023-05-07T12:38:37;19.50;56.40
16160;DHT22;8185;57.818;15.224;2023-05-07T12:41:07;19.20;52.00
16160;DHT22;8185;57.818;15.224;2023-05-07T12:43:34;19.00;51.20
16160;DHT22;8185;57.818;15.224;2023-05-07T12:46:03;19.70;52.00
16160;DHT22;8185;57.818;15.224;2023-05-07T12:48:31;18.60;52.10
16160;DHT22;8185;57.818;15.224;2023-05-07T12:51:00;18.00;52.10
16160;DHT22;8185;57.818;15.224;2023-05-07T12:53:29;18.60;52.50
16160;DHT22;8185;57.818;15.224;2023-05-07T12:55:59;17.90;53.40
16160;DHT22;8185;57.818;15.224;2023-05-07T12:58:27;18.90;54.50
16160;DHT22;8185;57.818;15.224;2023-05-07T13:00:56;19.30;54.80
16160;DHT22;8185;57.818;15.224;2023-05-07T13:03:26;18.80;51.70
16160;DHT22;8185;57.818;15.224;2023-05-07T13:05:55;18.80;54.10
16160;DHT22;8185;57.818;15.224;2023-05-07T13:08:27;19.30;57.30
16160;DHT22;8185;57.818;15.224;2023-05-07T13:10:55;20.30;59.10
16160;DHT22;8185;57.818;15.224;2023-05-07T13:13:24;21.00;56.00
16160;DHT22;8185;57.818;15.224;2023-05-07T13:15:51;20.30;52.40
16160;DHT22;8185;57.818;15.224;2023-05-07T13:18:18;21.10;53.10
16160;DHT22;8185;57.818;15.224;2023-05-07T13:20:46;21.70;52.10
16160;DHT22;8185;57.818;15.224;2023-05-07T13:23:13;20.40;52.40
16160;DHT22;8185;57.818;15.224;2023-05-07T13:25:40;20.70;51.80
16160;DHT22;8185;57.818;15.224;2023-05-07T13:28:07;21.40;52.60
16160;DHT22;8185;57.818;15.224;2023-05-07T13:30:36;21.80;51.20
16160;DHT22;8185;57.818;15.224;2023-05-07T13:33:03;23.50;50.80
16160;DHT22;8185;57.818;15.224;2023-05-07T13:35:31;22.90;50.70
16160;DHT22;8185;57.818;15.224;2023-05-07T13:37:58;23.40;49.50
16160;DHT22;8185;57.818;15.224;2023-05-07T13:40:25;25.30;47.50
16160;DHT22;8185;57.818;15.224;2023-05-07T13:42:53;25.70;47.00
16160;DHT22;8185;57.818;15.224;2023-05-07T13:45:20;25.60;46.10
16160;DHT22;8185;57.818;15.224;2023-05-07T13:47:52;23.70;46.00
16160;DHT22;8185;57.818;15.224;2023-05-07T13:50:19;23.00;47.80
16160;DHT22;8185;57.818;15.224;2023-05-07T13:52:47;25.00;48.80
16160;DHT22;8185;57.818;15.224;2023-05-07T13:55:17;27.50;46.80
16160;DHT22;8185;57.818;15.224;2023-05-07T13:57:44;26.60;46.00
16160;DHT22;8185;57.818;15.224;2023-05-07T14:00:12;25.40;46.10
16160;DHT22;8185;57.818;15.224;2023-05-07T14:02:42;25.50;45.50
16160;DHT22;8185;57.818;15.224;2023-05-07T14:05:11;24.50;48.30
16160;DHT22;8185;57.818;15.224;2023-05-07T14:07:39;24.30;45.40
16160;DHT22;8185;57.818;15.224;2023-05-07T14:10:07;25.20;48.40
16160;DHT22;8185;57.818;15.224;2023-05-07T14:12:35;26.00;45.70
16160;DHT22;8185;57.818;15.224;2023-05-07T14:15:02;25.40;44.80
16160;DHT22;8185;57.818;15.224;2023-05-07T14:17:30;25.40;46.10
16160;DHT22;8185;57.818;15.224;2023-05-07T14:19:57;25.60;45.60
16160;DHT22;8185;57.818;15.224;2023-05-07T14:22:26;25.80;44.60
16160;DHT22;8185;57.818;15.224;2023-05-07T14:24:53;26.70;44.60
16160;DHT22;8185;57.818;15.224;2023-05-07T14:27:20;26.80;43.80
16160;DHT22;8185;57.818;15.224;2023-05-07T14:29:47;25.80;44.20
16160;DHT22;8185;57.818;15.224;2023-05-07T14:32:17;26.90;44.00
16160;DHT22;8185;57.818;15.224;2023-05-07T14:34:44;27.20;44.00
16160;DHT22;8185;57.818;15.224;2023-05-07T14:37:12;27.20;44.10
16160;DHT22;8185;57.818;15.224;2023-05-07T14:39:41;26.30;43.40
16160;DHT22;8185;57.818;15.224;2023-05-07T14:42:08;26.80;46.50
16160;DHT22;8185;57.818;15.224;2023-05-07T14:44:37;26.30;43.60
16160;DHT22;8185;57.818;15.224;2023-05-07T14:47:06;26.20;47.20
16160;DHT22;8185;57.818;15.224;2023-05-07T14:49:33;26.30;45.90
16160;DHT22;8185;57.818;15.224;2023-05-07T14:52:00;26.30;44.80
16160;DHT22;8185;57.818;15.224;2023-05-07T14:54:28;26.30;43.40
16160;DHT22;8185;57.818;15.224;2023-05-07T14:56:57;26.60;44.10
16160;DHT22;8185;57.818;15.224;2023-05-07T14:59:24;27.00;45.80
16160;DHT22;8185;57.818;15.224;2023-05-07T15:01:51;28.20;42.50
16160;DHT22;8185;57.818;15.224;2023-05-07T15:04:19;29.00;41.90
16160;DHT22;8185;57.818;15.224;2023-05-07T15:06:46;27.30;42.40
16160;DHT22;8185;57.818;15.224;2023-05-07T15:09:13;27.60;42.30
16160;DHT22;8185;57.818;15.224;2023-05-07T15:11:41;28.70;42.40
16160;DHT22;8185;57.818;15.224;2023-05-07T15:14:09;26.40;42.40
16160;DHT22;8185;57.818;15.224;2023-05-07T15:16:36;26.80;42.90
16160;DHT22;8185;57.818;15.224;2023-05-07T15:19:04;27.90;41.80
16160;DHT22;8185;57.818;15.224;2023-05-07T15:21:31;28.00;41.10
16160;DHT22;8185;57.818;15.224;2023-05-07T15:24:00;27.40;39.80
16160;DHT22;8185;57.818;15.224;2023-05-07T15:26:27;25.90;40.70
16160;DHT22;8185;57.818;15.224;2023-05-07T15:28:55;24.70;42.50
16160;DHT22;8185;57.818;15.224;2023-05-07T15:31:27;25.50;44.20
16160;DHT22;8185;57.818;15.224;2023-05-07T15:33:54;25.10;45.60
16160;DHT22;8185;57.818;15.224;2023-05-07T15:36:22;25.10;44.00
16160;DHT22;8185;57.818;15.224;2023-05-07T15:38:49;24.50;43.00
16160;DHT22;8185;57.818;15.224;2023-05-07T15:41:17;25.70;43.30
16160;DHT22;8185;57.818;15.224;2023-05-07T15:43:46;26.50;41.80